Time;durP1;ratioP1;P1;durP2;ratioP2;P2;SDS_P1;SDS_P2;PMS_P1;PMS_P2;Temp;Humidity;BMP_temperature;BMP_pressure;BME280_temperature;BME280_humidity;BME280_pressure;Samples;Min_cycle;Max_cycle;Signal;HPM_P1;HPM_P2
2021/10/03 00:01:19;;;;;;;5.60;2.58;;;;;;;12.33;64.00;97532.44;4980292;28;20070;-44
2021/10/03 00:03:49;;;;;;;6.82;2.78;;;;;;;12.32;63.29;97531.59;4981407;28;20058;-43
2021/10/03 00:06:17;;;;;;;19.02;5.53;;;;;;;12.29;63.71;97542.13;4977302;28;20051;-43
2021/10/03 00:08:45;;;;;;;7.28;2.35;;;;;;;12.27;63.07;97537.91;4977288;28;20487;-41
2021/10/03 00:11:13;;;;;;;13.85;4.25;;;;;;;12.25;64.16;97540.59;4977012;28;20038;-43
2021/10/03 00:13:40;;;;;;;8.55;3.05;;;;;;;12.22;63.67;97535.53;4976770;28;20058;-44
2021/10/03 00:16:08;;;;;;;7.90;2.85;;;;;;;12.20;63.52;97537.41;4982635;28;20119;-44
2021/10/03 00:18:37;;;;;;;7.25;2.85;;;;;;;12.18;64.50;97534.88;4978906;28;20054;-41
2021/10/03 00:21:10;;;;;;;10.23;3.72;;;;;;;12.16;63.34;97535.88;4982693;28;20093;-41
2021/10/03 00:23:39;;;;;;;8.65;2.67;;;;;;;12.13;64.09;97536.84;4977952;28;20050;-44
2021/10/03 00:26:06;;;;;;;5.47;2.70;;;;;;;12.13;64.10;97538.63;4982704;28;20112;-41
2021/10/03 00:28:33;;;;;;;4.60;2.92;;;;;;;12.11;64.24;97548.22;4984601;28;20104;-42
2021/10/03 00:31:00;;;;;;;7.53;2.80;;;;;;;12.10;64.30;97554.31;4987679;28;20054;-41
2021/10/03 00:33:27;;;;;;;13.30;4.40;;;;;;;12.07;63.50;97553.56;4984469;28;20050;-42
2021/10/03 00:35:54;;;;;;;5.78;1.50;;;;;;;12.06;63.62;97572.63;4981328;28;20046;-43
2021/10/03 00:38:21;;;;;;;5.22;2.40;;;;;;;12.04;63.67;97574.44;4984116;28;20062;-41
2021/10/03 00:40:48;;;;;;;4.30;1.92;;;;;;;12.01;63.91;97579.78;4985557;28;20105;-41
2021/10/03 00:43:15;;;;;;;5.00;2.50;;;;;;;11.99;63.61;97586.78;4987537;28;20050;-40
2021/10/03 00:45:43;;;;;;;9.23;2.83;;;;;;;11.95;63.69;97591.28;4987649;28;20054;-41
2021/10/03 00:48:10;;;;;;;5.80;2.53;;;;;;;11.95;63.60;97591.28;4983465;28;20056;-43
2021/10/03 00:50:38;;;;;;;5.25;2.50;;;;;;;11.94;64.49;97591.34;4984323;28;20050;-42
2021/10/03 00:53:05;;;;;;;8.55;2.00;;;;;;;11.92;63.46;97600.97;4982634;28;20058;-42
2021/10/03 00:55:33;;;;;;;5.05;2.65;;;;;;;11.91;64.73;97594.94;4986657;28;20050;-41
2021/10/03 00:58:00;;;;;;;4.10;1.80;;;;;;;11.90;64.30;97600.19;4983525;28;20057;-41
2021/10/03 01:00:29;;;;;;;4.82;1.75;;;;;;;11.88;64.21;97600.28;4982889;28;20053;-41
2021/10/03 01:02:57;;;;;;;4.78;2.00;;;;;;;11.87;64.35;97610.72;4983424;28;20042;-42
2021/10/03 01:05:24;;;;;;;5.10;1.35;;;;;;;11.86;64.20;97616.81;4983018;28;20384;-41
2021/10/03 01:07:52;;;;;;;4.43;1.67;;;;;;;11.83;63.79;97618.63;4977379;28;20054;-41
2021/10/03 01:10:23;;;;;;;3.25;1.83;;;;;;;11.80;64.12;97618.81;4977657;28;20050;-41
2021/10/03 01:12:56;;;;;;;5.00;2.45;;;;;;;11.78;64.52;97625.81;4985894;28;20090;-41
2021/10/03 01:15:25;;;;;;;2.85;2.00;;;;;;;11.78;64.41;97633.59;4984724;28;20446;-40
2021/10/03 01:17:52;;;;;;;2.75;1.48;;;;;;;11.76;64.10;97622.44;4985932;28;20096;-41
2021/10/03 01:20:19;;;;;;;3.45;1.42;;;;;;;11.75;64.33;97625.13;4980862;28;20123;-41
2021/10/03 01:22:46;;;;;;;4.07;0.85;;;;;;;11.73;63.69;97627.78;4982007;28;20100;-41
2021/10/03 01:25:14;;;;;;;2.53;1.92;;;;;;;11.70;63.51;97626.19;4983314;28;20050;-42
2021/10/03 01:27:40;;;;;;;2.15;0.68;;;;;;;11.69;63.88;97626.25;4985305;28;20571;-42
2021/10/03 01:30:11;;;;;;;4.00;1.88;;;;;;;11.67;63.38;97612.50;4986215;28;20479;-42
2021/10/03 01:32:38;;;;;;;3.10;1.73;;;;;;;11.65;64.14;97619.53;4982322;28;21395;-42
2021/10/03 01:35:07;;;;;;;2.33;1.20;;;;;;;11.64;63.48;97623.00;4977050;28;20530;-40
2021/10/03 01:37:34;;;;;;;3.50;1.80;;;;;;;11.62;64.30;97617.88;4980543;28;20048;-43
2021/10/03 01:40:06;;;;;;;3.35;0.88;;;;;;;11.57;63.71;97612.94;4985201;28;20638;-41
2021/10/03 01:42:33;;;;;;;3.17;1.92;;;;;;;11.57;64.51;97623.31;4965982;28;20078;-41
2021/10/03 01:45:00;;;;;;;2.40;1.58;;;;;;;11.57;64.04;97625.03;4985734;28;20038;-41
2021/10/03 01:47:26;;;;;;;2.47;1.30;;;;;;;11.53;64.00;97629.53;4982454;28;20054;-41
2021/10/03 01:49:53;;;;;;;4.45;2.33;;;;;;;11.54;63.71;97628.63;4979630;28;20049;-41
2021/10/03 01:52:19;;;;;;;3.65;1.95;;;;;;;11.50;64.12;97632.25;4977645;28;20482;-42
2021/10/03 01:54:46;;;;;;;2.10;1.52;;;;;;;11.49;63.89;97630.59;4979351;28;20054;-40
2021/10/03 01:57:13;;;;;;;1.98;1.65;;;;;;;11.47;63.76;97637.59;4984529;28;20050;-39
2021/10/03 01:59:40;;;;;;;3.83;2.08;;;;;;;11.44;64.16;97642.91;4980955;28;20055;-40
2021/10/03 02:02:07;;;;;;;1.60;0.70;;;;;;;11.44;63.36;97637.72;4983335;28;20626;-41
2021/10/03 02:04:34;;;;;;;2.00;1.30;;;;;;;11.43;63.77;97636.03;4978581;28;20046;-43
2021/10/03 02:07:01;;;;;;;1.98;1.75;;;;;;;11.41;63.55;97645.63;4975622;28;20054;-41
2021/10/03 02:09:28;;;;;;;2.30;1.40;;;;;;;11.39;64.13;97644.88;4976321;28;20051;-40
2021/10/03 02:11:57;;;;;;;1.55;1.30;;;;;;;11.37;63.40;97625.94;4994446;28;20050;-41
2021/10/03 02:14:30;;;;;;;2.70;1.60;;;;;;;11.32;63.78;97621.81;4974365;28;20104;-41
2021/10/03 02:16:59;;;;;;;4.13;1.20;;;;;;;11.30;63.87;97631.41;4983642;28;20070;-41
2021/10/03 02:19:27;;;;;;;1.63;0.90;;;;;;;11.29;63.86;97634.06;4982118;28;20046;-41
2021/10/03 02:21:55;;;;;;;2.05;1.63;;;;;;;11.28;63.78;97628.03;4981988;28;20117;-42
2021/10/03 02:24:22;;;;;;;1.65;1.38;;;;;;;11.26;64.19;97642.81;4980744;28;20050;-44
2021/10/03 02:26:49;;;;;;;1.70;1.55;;;;;;;11.24;63.47;97646.38;4976271;28;20043;-41
2021/10/03 02:29:16;;;;;;;3.60;1.05;;;;;;;11.23;63.85;97655.91;4983585;28;20124;-42
2021/10/03 02:31:43;;;;;;;1.65;1.25;;;;;;;11.21;63.92;97644.75;4980631;28;20058;-40
2021/10/03 02:34:09;;;;;;;3.35;1.55;;;;;;;11.18;63.56;97642.31;4984467;28;20599;-41
2021/10/03 02:36:36;;;;;;;1.80;1.42;;;;;;;11.15;63.59;97647.63;4978188;28;20092;-41
2021/10/03 02:39:03;;;;;;;1.60;0.60;;;;;;;11.14;63.34;97651.13;4984839;28;20457;-42
2021/10/03 02:41:30;;;;;;;1.40;0.65;;;;;;;11.13;63.86;97665.00;4983239;28;20434;-41
2021/10/03 02:43:58;;;;;;;1.83;1.42;;;;;;;11.11;63.62;97664.22;4982382;28;20046;-41
2021/10/03 02:46:26;;;;;;;1.30;1.20;;;;;;;11.08;64.09;97661.75;4982217;28;20054;-41
2021/10/03 02:48:54;;;;;;;1.90;1.73;;;;;;;11.07;63.81;97666.09;4981186;28;20509;-42
2021/10/03 02:51:26;;;;;;;1.55;1.45;;;;;;;11.04;63.97;97666.22;4982223;28;20113;-41
2021/10/03 02:53:54;;;;;;;2.10;1.75;;;;;;;11.03;63.55;97665.41;4981084;28;20058;-42
2021/10/03 02:56:29;;;;;;;1.23;0.60;;;;;;;11.01;64.00;97662.00;4978520;28;20457;-41
2021/10/03 02:58:56;;;;;;;2.30;1.77;;;;;;;10.97;64.28;97660.47;4991486;28;20050;-41
2021/10/03 03:01:23;;;;;;;1.75;1.08;;;;;;;10.98;63.74;97669.91;4980188;28;20066;-41
2021/10/03 03:03:51;;;;;;;3.13;1.42;;;;;;;10.95;64.09;97662.28;4982555;28;20073;-42
2021/10/03 03:06:18;;;;;;;1.60;1.35;;;;;;;10.94;64.36;97658.00;4981223;28;20046;-41
2021/10/03 03:08:46;;;;;;;2.13;1.20;;;;;;;10.92;64.56;97663.25;4982536;28;20051;-41
2021/10/03 03:11:13;;;;;;;1.20;1.08;;;;;;;10.92;64.19;97672.78;4983849;28;20137;-41
2021/10/03 03:13:40;;;;;;;1.63;1.52;;;;;;;10.92;64.06;97680.56;4986486;28;20046;-42
2021/10/03 03:16:07;;;;;;;1.88;1.45;;;;;;;10.90;63.70;97669.41;4983756;28;20042;-42
2021/10/03 03:18:33;;;;;;;2.33;1.55;;;;;;;10.89;64.35;97662.53;4983501;28;20060;-41
2021/10/03 03:21:00;;;;;;;1.80;1.25;;;;;;;10.88;64.08;97660.88;4986295;28;20058;-40
2021/10/03 03:23:27;;;;;;;1.08;0.60;;;;;;;10.87;63.78;97664.34;4989295;28;20439;-41
2021/10/03 03:25:53;;;;;;;1.13;1.02;;;;;;;10.85;64.23;97663.59;4987636;28;20101;-40
2021/10/03 03:28:20;;;;;;;1.27;1.00;;;;;;;10.82;63.66;97659.38;4987473;28;20054;-40
2021/10/03 03:30:47;;;;;;;2.90;1.63;;;;;;;10.80;63.83;97668.94;4985378;28;20120;-40
2021/10/03 03:33:15;;;;;;;2.10;1.95;;;;;;;10.78;64.26;97657.84;4988471;28;20050;-40
2021/10/03 03:35:43;;;;;;;5.72;1.10;;;;;;;10.77;64.36;97669.94;4985460;28;20050;-40
2021/10/03 03:38:10;;;;;;;1.02;0.93;;;;;;;10.74;64.10;97672.63;4987315;28;20046;-42
2021/10/03 03:40:37;;;;;;;1.15;0.93;;;;;;;10.73;63.46;97677.88;4983563;28;20046;-41
2021/10/03 03:43:04;;;;;;;1.73;1.15;;;;;;;10.70;63.83;97681.44;4989945;28;20050;-39
2021/10/03 03:45:30;;;;;;;3.72;2.25;;;;;;;10.68;64.09;97675.50;4986371;28;20042;-43
2021/10/03 03:48:01;;;;;;;1.63;1.52;;;;;;;10.66;63.66;97680.72;4986866;28;20137;-41
2021/10/03 03:50:30;;;;;;;1.90;1.45;;;;;;;10.65;63.50;97684.25;4987075;28;20050;-44
2021/10/03 03:52:57;;;;;;;1.40;1.10;;;;;;;10.63;63.89;97698.13;4987276;28;20050;-41
2021/10/03 03:55:24;;;;;;;1.60;1.35;;;;;;;10.62;63.70;97686.09;4983291;28;20129;-43
2021/10/03 03:57:51;;;;;;;1.17;1.08;;;;;;;10.60;63.84;97682.75;4986885;28;20086;-40
2021/10/03 04:00:20;;;;;;;1.38;1.27;;;;;;;10.56;64.03;97679.41;4985805;28;20093;-41
2021/10/03 04:02:46;;;;;;;1.88;1.33;;;;;;;10.56;64.35;97688.91;4983806;28;20054;-41
2021/10/03 04:05:13;;;;;;;1.65;1.55;;;;;;;10.54;64.19;97695.00;4986266;28;20054;-40
2021/10/03 04:07:40;;;;;;;1.65;1.55;;;;;;;10.52;63.85;97706.34;4986817;28;20050;-41
2021/10/03 04:10:07;;;;;;;2.47;1.15;;;;;;;10.50;63.91;97727.09;4988707;28;20058;-40
2021/10/03 04:12:33;;;;;;;2.42;1.95;;;;;;;10.48;63.97;97728.91;4986360;28;20077;-42
2021/10/03 04:15:00;;;;;;;1.50;1.15;;;;;;;10.47;63.80;97732.38;4950930;28;20054;-40
2021/10/03 04:17:27;;;;;;;3.10;1.52;;;;;;;10.46;63.78;97722.94;4985261;28;20101;-40
2021/10/03 04:19:53;;;;;;;1.42;1.13;;;;;;;10.44;63.93;97709.22;4985357;28;20118;-41
2021/10/03 04:22:20;;;;;;;1.77;1.67;;;;;;;10.43;63.71;97704.91;4985817;28;20062;-40
2021/10/03 04:24:46;;;;;;;2.15;1.95;;;;;;;10.41;64.63;97693.81;4989140;28;20054;-41
2021/10/03 04:27:13;;;;;;;1.33;1.23;;;;;;;10.39;63.95;97688.69;4983684;28;20097;-40
2021/10/03 04:29:39;;;;;;;3.70;1.02;;;;;;;10.38;63.60;97688.75;4986358;28;20097;-41
2021/10/03 04:32:06;;;;;;;1.52;1.42;;;;;;;10.37;64.21;97703.41;4982402;28;20932;-42
2021/10/03 04:34:33;;;;;;;1.95;1.38;;;;;;;10.36;63.54;97695.72;4987186;28;20054;-41
2021/10/03 04:37:00;;;;;;;2.78;1.05;;;;;;;10.33;63.95;97696.69;4986877;28;20050;-41
2021/10/03 04:39:28;;;;;;;1.63;1.42;;;;;;;10.33;64.02;97703.63;4984741;28;20050;-42
2021/10/03 04:41:55;;;;;;;1.92;1.83;;;;;;;10.30;64.00;97696.78;4986200;28;20046;-41
2021/10/03 04:44:21;;;;;;;2.10;1.90;;;;;;;10.29;64.07;97708.91;4984672;28;20186;-40
2021/10/03 04:46:48;;;;;;;3.60;1.40;;;;;;;10.28;63.84;97715.00;4984258;28;20763;-41
2021/10/03 04:49:15;;;;;;;2.33;2.13;;;;;;;10.27;64.23;97728.81;4986420;28;20050;-41
2021/10/03 04:51:41;;;;;;;1.20;1.10;;;;;;;10.26;64.29;97740.06;4985621;28;20054;-40
2021/10/03 04:54:08;;;;;;;1.50;1.40;;;;;;;10.25;63.73;97746.16;4986274;28;20054;-40
2021/10/03 04:56:35;;;;;;;1.20;1.10;;;;;;;10.23;63.96;97737.59;4986195;28;20097;-41
2021/10/03 04:59:01;;;;;;;0.98;0.88;;;;;;;10.23;63.72;97737.59;4984062;28;20058;-42
2021/10/03 05:01:28;;;;;;;2.40;2.20;;;;;;;10.23;64.27;97744.53;4984377;28;20109;-40
2021/10/03 05:03:54;;;;;;;1.42;0.40;;;;;;;10.20;63.77;97742.88;4983736;28;20430;-40
2021/10/03 05:06:21;;;;;;;1.83;1.08;;;;;;;10.18;63.70;97736.94;4974964;28;20283;-41
2021/10/03 05:08:48;;;;;;;1.30;1.20;;;;;;;10.17;64.08;97737.84;5009411;28;20050;-41
2021/10/03 05:11:14;;;;;;;2.00;1.40;;;;;;;10.15;63.75;97743.06;4984018;28;20060;-40
2021/10/03 05:13:41;;;;;;;2.15;1.15;;;;;;;10.13;64.09;97736.25;4985413;28;20054;-42
2021/10/03 05:16:08;;;;;;;2.00;1.33;;;;;;;10.13;64.08;97746.59;4983594;28;20048;-41
2021/10/03 05:18:37;;;;;;;1.85;1.35;;;;;;;10.12;64.36;97737.16;4983111;28;20054;-39
2021/10/03 05:21:08;;;;;;;1.65;1.55;;;;;;;10.11;64.27;97736.34;4987490;28;20042;-40
2021/10/03 05:23:35;;;;;;;1.92;1.58;;;;;;;10.10;64.39;97736.41;4987022;28;20046;-41
2021/10/03 05:26:02;;;;;;;1.55;1.45;;;;;;;10.09;64.55;97734.69;4986121;28;20097;-41
2021/10/03 05:28:28;;;;;;;1.65;1.55;;;;;;;10.08;63.50;97730.41;4983071;28;20522;-40
2021/10/03 05:30:55;;;;;;;2.20;2.10;;;;;;;10.07;63.87;97731.34;4985485;28;20042;-41
2021/10/03 05:33:22;;;;;;;1.33;1.23;;;;;;;10.06;64.33;97735.66;4984901;28;20116;-40
2021/10/03 05:35:48;;;;;;;2.05;1.23;;;;;;;10.05;64.44;97746.06;4987088;28;20095;-40
2021/10/03 05:38:15;;;;;;;1.50;1.40;;;;;;;10.03;64.41;97749.53;4985623;28;20058;-41
2021/10/03 05:40:42;;;;;;;1.17;1.08;;;;;;;10.03;63.89;97748.69;4985593;28;20138;-41
2021/10/03 05:43:08;;;;;;;1.10;0.73;;;;;;;10.02;63.90;97740.09;4983914;28;20326;-41
2021/10/03 05:45:35;;;;;;;3.20;1.27;;;;;;;10.02;64.12;97724.59;4984205;28;20718;-41
2021/10/03 05:48:01;;;;;;;3.30;1.35;;;;;;;10.02;64.17;97729.75;4986621;28;20058;-40
2021/10/03 05:50:28;;;;;;;3.42;3.15;;;;;;;10.01;64.17;97722.91;4984740;28;20133;-41
2021/10/03 05:52:55;;;;;;;1.92;1.73;;;;;;;10.01;63.94;97722.91;4986114;28;20042;-40
2021/10/03 05:55:21;;;;;;;2.72;1.50;;;;;;;10.01;64.02;97738.44;4984754;28;20057;-41
2021/10/03 05:57:48;;;;;;;1.67;1.52;;;;;;;10.01;64.11;97727.22;4985199;28;20042;-39
2021/10/03 06:00:15;;;;;;;14.30;3.67;;;;;;;10.00;64.20;97726.38;4987047;28;20438;-39
2021/10/03 06:02:41;;;;;;;4.22;1.95;;;;;;;10.00;64.01;97720.38;4983387;28;20109;-42
2021/10/03 06:05:08;;;;;;;3.80;0.90;;;;;;;10.00;64.15;97720.38;4982660;28;20359;-42
2021/10/03 06:07:35;;;;;;;2.47;1.60;;;;;;;9.98;64.30;97743.72;4981042;28;20108;-40
2021/10/03 06:10:04;;;;;;;1.83;1.65;;;;;;;9.97;63.83;97767.88;4983252;28;20050;-40
2021/10/03 06:12:30;;;;;;;3.05;1.50;;;;;;;9.96;64.22;97775.72;4985063;28;20100;-42
2021/10/03 06:14:57;;;;;;;3.22;2.50;;;;;;;9.96;64.34;97786.88;4985558;28;20093;-41
2021/10/03 06:17:23;;;;;;;3.63;1.38;;;;;;;9.93;63.72;97781.81;4978403;28;20156;-40
2021/10/03 06:19:51;;;;;;;2.95;2.28;;;;;;;9.92;63.89;97776.72;4981868;28;20050;-41
2021/10/03 06:22:22;;;;;;;3.10;1.80;;;;;;;9.90;63.68;97782.78;4985062;28;20054;-42
2021/10/03 06:24:49;;;;;;;4.35;1.38;;;;;;;9.89;64.58;97780.22;4982584;28;20058;-40
2021/10/03 06:27:15;;;;;;;3.38;1.80;;;;;;;9.87;64.19;97787.22;4985041;28;20043;-40
2021/10/03 06:29:42;;;;;;;3.40;1.50;;;;;;;9.85;64.46;97784.69;4986062;28;20054;-41
2021/10/03 06:32:09;;;;;;;4.00;2.22;;;;;;;9.84;63.93;97779.56;4983006;28;20066;-40
2021/10/03 06:34:35;;;;;;;2.22;1.52;;;;;;;9.81;64.32;97777.09;4984587;28;20083;-41
2021/10/03 06:37:02;;;;;;;3.35;1.80;;;;;;;9.77;63.98;97777.19;4981149;28;20050;-42
2021/10/03 06:39:29;;;;;;;2.80;1.52;;;;;;;9.77;63.96;97776.38;4982938;28;20101;-41
2021/10/03 06:41:56;;;;;;;2.22;1.60;;;;;;;9.75;64.42;97781.59;4982395;28;20042;-41
2021/10/03 06:44:22;;;;;;;2.65;0.90;;;;;;;9.75;64.40;97797.09;4983634;28;20738;-42
2021/10/03 06:46:49;;;;;;;2.30;1.38;;;;;;;9.74;64.01;97798.00;4981296;28;20741;-42
2021/10/03 06:49:16;;;;;;;3.03;1.65;;;;;;;9.74;64.04;97803.19;4986344;28;20186;-41
2021/10/03 06:51:43;;;;;;;1.65;1.55;;;;;;;9.74;64.33;97798.00;4964933;28;20058;-41
2021/10/03 06:54:10;;;;;;;1.58;1.48;;;;;;;9.74;64.45;97792.00;4981489;28;20156;-40
2021/10/03 06:56:37;;;;;;;3.42;0.70;;;;;;;9.75;64.08;97793.66;4988171;28;20344;-41
2021/10/03 06:59:04;;;;;;;3.85;1.73;;;;;;;9.74;63.81;97792.84;4983056;28;20116;-40
2021/10/03 07:01:31;;;;;;;1.77;1.48;;;;;;;9.75;64.74;97804.84;4986849;28;20568;-43
2021/10/03 07:03:58;;;;;;;3.05;1.52;;;;;;;9.74;64.42;97813.53;4985014;28;20491;-42
2021/10/03 07:06:24;;;;;;;1.48;1.38;;;;;;;9.74;64.11;97816.09;4980244;28;20046;-43
2021/10/03 07:08:51;;;;;;;3.95;1.45;;;;;;;9.75;64.69;97810.03;4983382;28;20050;-40
2021/10/03 07:11:18;;;;;;;2.40;1.35;;;;;;;9.76;64.26;97826.38;4987648;28;20054;-40
2021/10/03 07:13:44;;;;;;;1.75;1.33;;;;;;;9.77;65.13;97836.66;4983355;28;20578;-40
2021/10/03 07:16:12;;;;;;;2.38;1.35;;;;;;;9.79;64.48;97815.09;4985289;28;20073;-40
2021/10/03 07:18:38;;;;;;;2.20;0.98;;;;;;;9.81;65.10;97823.63;4980576;28;20410;-41
2021/10/03 07:21:05;;;;;;;2.45;1.42;;;;;;;9.83;65.02;97832.19;4982310;28;20691;-41
2021/10/03 07:23:32;;;;;;;1.45;1.35;;;;;;;9.85;64.73;97833.81;4981833;28;20092;-41
2021/10/03 07:25:59;;;;;;;3.67;1.42;;;;;;;9.87;64.85;97844.09;4979164;28;20062;-41
2021/10/03 07:28:26;;;;;;;2.53;1.50;;;;;;;9.89;64.89;97837.13;4985491;28;20096;-39
2021/10/03 07:30:53;;;;;;;3.97;1.98;;;;;;;9.91;64.95;97830.16;4983957;28;20104;-41
2021/10/03 07:33:20;;;;;;;3.38;1.75;;;;;;;9.95;64.79;97846.41;4982975;28;20495;-41
2021/10/03 07:35:47;;;;;;;2.45;1.65;;;;;;;9.95;65.27;97852.44;4983089;28;20129;-40
2021/10/03 07:38:14;;;;;;;1.50;1.38;;;;;;;9.97;64.87;97866.13;4986450;28;20779;-41
2021/10/03 07:40:43;;;;;;;2.28;1.23;;;;;;;9.98;64.70;97875.59;4987232;28;20093;-40
2021/10/03 07:43:11;;;;;;;2.33;1.00;;;;;;;10.01;64.48;97892.75;4986075;28;20121;-41
2021/10/03 07:45:38;;;;;;;2.78;1.45;;;;;;;10.02;64.91;97884.94;4995478;28;20109;-41
2021/10/03 07:48:05;;;;;;;3.10;1.42;;;;;;;10.03;64.45;97891.78;4995819;28;20101;-41
2021/10/03 07:50:31;;;;;;;2.15;1.48;;;;;;;10.03;65.05;97886.63;4981955;28;20054;-43
2021/10/03 07:52:58;;;;;;;1.85;1.70;;;;;;;10.07;64.81;97886.50;4980138;28;20070;-42
2021/10/03 07:55:28;;;;;;;3.00;1.42;;;;;;;10.08;64.76;97883.03;4980312;28;20514;-42
2021/10/03 07:57:59;;;;;;;1.50;1.35;;;;;;;10.10;64.91;97876.88;4981913;28;20046;-41
2021/10/03 08:00:25;;;;;;;3.33;1.63;;;;;;;10.12;64.70;97882.88;4976586;28;20079;-42
2021/10/03 08:02:52;;;;;;;1.92;1.83;;;;;;;10.14;64.87;97898.34;4980286;28;20050;-42
2021/10/03 08:05:20;;;;;;;1.13;1.02;;;;;;;10.16;64.91;97909.47;4982299;28;20060;-42
2021/10/03 08:07:46;;;;;;;2.35;1.30;;;;;;;10.18;65.21;97910.25;4978876;28;20050;-40
2021/10/03 08:10:13;;;;;;;2.47;0.32;;;;;;;10.20;65.17;97903.28;4984768;28;20418;-41
2021/10/03 08:12:40;;;;;;;2.22;1.20;;;;;;;10.23;65.06;97913.50;4988217;28;20058;-41
2021/10/03 08:15:08;;;;;;;2.70;1.77;;;;;;;10.26;65.55;97923.75;4986881;28;20065;-41
2021/10/03 08:17:34;;;;;;;1.30;1.05;;;;;;;10.28;65.27;97906.44;4984364;28;20160;-40
2021/10/03 08:20:01;;;;;;;2.15;1.40;;;;;;;10.31;65.15;97909.81;4982456;28;20482;-43
2021/10/03 08:22:28;;;;;;;2.80;1.15;;;;;;;10.32;64.90;97901.16;4987565;28;20042;-42
2021/10/03 08:24:54;;;;;;;1.50;1.40;;;;;;;10.34;65.03;97900.19;4982571;28;20058;-40
2021/10/03 08:27:21;;;;;;;1.60;1.50;;;;;;;10.38;65.03;97890.59;4984123;28;20055;-42
2021/10/03 08:29:47;;;;;;;2.03;1.83;;;;;;;10.40;64.72;97899.97;4981846;28;20050;-41
2021/10/03 08:32:14;;;;;;;1.98;1.75;;;;;;;10.43;65.02;97899.00;4985053;28;20046;-41
2021/10/03 08:34:41;;;;;;;4.32;1.92;;;;;;;10.45;65.26;97907.59;4986721;28;20150;-41
2021/10/03 08:37:08;;;;;;;3.13;1.58;;;;;;;10.48;64.83;97902.31;4983389;28;20133;-44
2021/10/03 08:39:34;;;;;;;3.05;1.83;;;;;;;10.50;64.92;97895.31;4987021;28;20050;-42
2021/10/03 08:42:02;;;;;;;2.03;1.38;;;;;;;10.54;65.29;97890.91;4986006;28;20097;-42
2021/10/03 08:44:31;;;;;;;2.25;1.35;;;;;;;10.58;64.79;97891.63;4984330;28;20548;-43
2021/10/03 08:46:58;;;;;;;2.22;1.67;;;;;;;10.61;65.25;97904.44;4982920;28;20063;-44
2021/10/03 08:49:28;;;;;;;4.63;1.42;;;;;;;10.64;65.49;97909.50;4983965;28;20054;-43
2021/10/03 08:51:54;;;;;;;3.50;2.03;;;;;;;10.68;65.03;97908.50;4982577;28;20051;-45
2021/10/03 08:54:23;;;;;;;2.22;1.70;;;;;;;10.71;65.39;97908.34;4985333;28;20065;-46
2021/10/03 08:56:50;;;;;;;1.58;1.48;;;;;;;10.75;65.35;97906.50;4985533;28;20050;-44
2021/10/03 08:59:17;;;;;;;1.77;1.20;;;;;;;10.76;65.36;97903.88;4981310;28;20053;-44
2021/10/03 09:01:50;;;;;;;1.67;0.90;;;;;;;10.78;65.48;97903.81;4983861;28;20104;-44
2021/10/03 09:04:31;;;;;;;3.95;1.23;;;;;;;10.83;65.58;97911.38;4978040;28;20050;-43
2021/10/03 09:07:01;;;;;;;2.25;1.90;;;;;;;10.86;65.28;97900.91;4986398;28;20370;-45
2021/10/03 09:09:56;;;;;;;3.05;0.98;;;;;;;10.89;65.08;97912.00;4982232;28;20065;-44
2021/10/03 09:12:39;;;;;;;2.67;1.40;;;;;;;10.92;65.42;97922.22;4985772;28;20052;-46
2021/10/03 09:15:16;;;;;;;2.60;1.55;;;;;;;10.97;65.53;97929.84;4966406;28;20540;-45
2021/10/03 09:17:58;;;;;;;2.35;1.70;;;;;;;10.99;65.23;97928.03;4986679;28;20112;-43
2021/10/03 09:20:30;;;;;;;2.30;0.60;;;;;;;11.01;64.88;97931.41;4986226;28;20602;-43
2021/10/03 09:23:11;;;;;;;2.42;1.42;;;;;;;11.05;65.27;97932.97;4981528;28;20046;-42
2021/10/03 09:25:42;;;;;;;1.20;1.10;;;;;;;11.10;65.88;97924.16;4986511;28;20058;-47
2021/10/03 09:28:14;;;;;;;3.08;1.23;;;;;;;11.14;66.05;97929.19;4984355;28;20038;-46
2021/10/03 09:30:58;;;;;;;1.48;1.02;;;;;;;11.22;65.67;97933.22;4985205;28;20113;-44
2021/10/03 09:33:36;;;;;;;2.97;1.45;;;;;;;11.28;65.58;97941.59;4984193;28;20150;-46
2021/10/03 09:36:03;;;;;;;1.60;1.13;;;;;;;11.38;66.71;97957.63;4984667;28;20050;-45
2021/10/03 09:38:42;;;;;;;3.25;1.77;;;;;;;11.46;66.14;97946.09;4980644;28;20054;-45
2021/10/03 09:41:10;;;;;;;4.45;1.35;;;;;;;11.56;65.20;97947.44;4990415;28;20085;-47
2021/10/03 09:43:40;;;;;;;3.92;1.70;;;;;;;11.64;65.68;97960.91;4986272;28;20042;-45
2021/10/03 09:46:08;;;;;;;3.75;1.20;;;;;;;11.72;66.16;97952.00;4976982;28;20129;-47
2021/10/03 09:48:51;;;;;;;2.95;1.40;;;;;;;11.79;64.83;97963.81;4978450;28;20096;-45
2021/10/03 09:51:17;;;;;;;2.75;1.30;;;;;;;11.88;65.24;97947.00;4986980;28;20054;-45
2021/10/03 09:53:44;;;;;;;2.25;1.30;;;;;;;11.95;65.42;97969.16;4984056;28;20132;-44
2021/10/03 09:56:13;;;;;;;2.65;1.88;;;;;;;12.04;65.83;97974.00;4984330;28;20054;-44
2021/10/03 09:58:40;;;;;;;3.45;1.58;;;;;;;12.20;66.93;97963.00;4983210;28;20101;-46
2021/10/03 10:01:07;;;;;;;3.05;1.55;;;;;;;12.41;65.62;97970.75;4982212;28;20050;-42
2021/10/03 10:03:36;;;;;;;2.33;1.05;;;;;;;12.65;65.20;97966.22;4985914;28;20046;-44
2021/10/03 10:06:04;;;;;;;3.35;1.30;;;;;;;12.90;65.97;97979.88;4983391;28;20510;-44
2021/10/03 10:08:33;;;;;;;3.45;0.88;;;;;;;13.12;65.52;97984.91;4983324;28;20053;-43
2021/10/03 10:11:10;;;;;;;2.95;1.52;;;;;;;13.36;64.67;97980.31;4982392;28;20141;-43
2021/10/03 10:13:38;;;;;;;2.75;1.58;;;;;;;13.59;63.66;97981.00;5000425;28;20057;-44
2021/10/03 10:16:27;;;;;;;3.45;1.35;;;;;;;13.82;63.88;97984.22;4985261;28;20070;-44
2021/10/03 10:19:32;;;;;;;5.00;1.30;;;;;;;14.03;63.56;97999.72;4983133;28;20057;-45
2021/10/03 10:22:38;;;;;;;1.90;1.42;;;;;;;14.25;64.13;97994.25;4982922;28;20050;-45
2021/10/03 10:25:16;;;;;;;2.67;1.45;;;;;;;14.42;63.34;97999.53;4986001;28;20518;-45
2021/10/03 10:27:58;;;;;;;2.63;0.40;;;;;;;14.58;63.30;97997.81;4984822;28;20586;-44
2021/10/03 10:30:25;;;;;;;4.72;1.42;;;;;;;14.71;63.72;97991.94;4988423;28;20038;-44
2021/10/03 10:33:04;;;;;;;2.85;1.23;;;;;;;14.82;62.62;98000.06;4987234;28;20083;-48
2021/10/03 10:35:33;;;;;;;2.97;1.42;;;;;;;14.92;62.63;97995.19;4990073;28;20054;-44
2021/10/03 10:38:20;;;;;;;3.10;1.35;;;;;;;15.01;62.12;97992.13;5017869;28;20043;-43
2021/10/03 10:40:47;;;;;;;1.92;0.95;;;;;;;15.07;62.27;97993.53;4974809;28;20042;-46
2021/10/03 10:43:38;;;;;;;2.78;1.85;;;;;;;15.15;61.74;98003.53;4986206;28;20552;-45
2021/10/03 10:46:06;;;;;;;2.22;0.60;;;;;;;15.18;61.66;98010.34;4985603;28;21537;-44
2021/10/03 10:48:32;;;;;;;4.00;1.67;;;;;;;15.22;61.84;98010.09;4986416;28;20061;-45
2021/10/03 10:51:15;;;;;;;1.55;0.45;;;;;;;15.23;60.65;98013.56;4987742;28;20506;-45
2021/10/03 10:53:42;;;;;;;2.03;1.15;;;;;;;15.25;61.74;98024.75;4985854;28;20058;-44
2021/10/03 10:56:16;;;;;;;5.28;2.30;;;;;;;15.26;61.46;98021.19;4984694;28;20058;-45
2021/10/03 10:59:03;;;;;;;6.25;2.65;;;;;;;15.22;60.79;98025.75;4985239;28;20117;-44
2021/10/03 11:01:41;;;;;;;2.42;2.00;;;;;;;15.22;61.27;98024.91;4996170;28;20046;-46
2021/10/03 11:04:24;;;;;;;2.80;2.25;;;;;;;15.19;61.53;98012.06;4985981;28;20046;-44
2021/10/03 11:06:52;;;;;;;3.10;1.40;;;;;;;15.20;60.18;98030.19;4986739;28;20057;-46
2021/10/03 11:09:18;;;;;;;2.65;1.13;;;;;;;15.20;61.59;98024.16;4985882;28;20102;-43
2021/10/03 11:12:01;;;;;;;4.72;1.20;;;;;;;15.21;61.46;98036.25;4985766;28;20585;-44
2021/10/03 11:14:28;;;;;;;;;;;;;;;15.24;60.80;98029.13;4986619;28;20054;-45
2021/10/03 11:17:00;;;;;;;5.05;1.23;;;;;;;15.23;61.02;98052.69;4985933;28;19933;-43
2021/10/03 11:19:39;;;;;;;2.40;1.35;;;;;;;15.22;60.85;98037.94;4987101;28;20062;-45
2021/10/03 11:22:11;;;;;;;3.08;1.77;;;;;;;15.25;60.99;98045.59;4987563;28;20054;-46
2021/10/03 11:24:43;;;;;;;1.45;1.35;;;;;;;15.27;61.39;98056.81;4980117;28;20450;-43
2021/10/03 11:27:12;;;;;;;3.05;1.35;;;;;;;15.27;61.16;98048.97;5002114;28;20478;-48
2021/10/03 11:29:43;;;;;;;1.60;1.13;;;;;;;15.31;60.51;98047.88;4982156;28;20514;-46
2021/10/03 11:32:13;;;;;;;2.55;1.27;;;;;;;15.34;61.10;98041.66;4984390;28;20050;-47
2021/10/03 11:34:42;;;;;;;;;;;;;;;15.38;60.57;98051.84;4987872;28;20047;-47
2021/10/03 11:37:21;;;;;;;2.35;1.42;;;;;;;15.41;61.23;98045.63;4984267;28;19929;-50
2021/10/03 11:39:52;;;;;;;3.58;1.30;;;;;;;15.46;61.25;98047.94;4986542;28;20105;-46
2021/10/03 11:42:40;;;;;;;2.67;1.48;;;;;;;15.49;61.03;98059.06;4985600;28;20058;-45